createdAt,value
2022-12-14T00:01:45.055Z,17.10
2022-12-14T00:04:16.952Z,16.50
2022-12-14T00:06:44.711Z,16.57
2022-12-14T00:09:13.896Z,16.37
2022-12-14T00:11:41.669Z,17.40
2022-12-14T00:14:09.415Z,14.80
2022-12-14T00:16:37.983Z,15.80
2022-12-14T00:19:06.303Z,14.53
2022-12-14T00:21:34.150Z,13.97
2022-12-14T00:24:02.017Z,13.73
2022-12-14T00:26:32.732Z,14.80
2022-12-14T00:29:02.621Z,14.50
2022-12-14T00:31:31.301Z,14.60
2022-12-14T00:33:59.760Z,14.60
2022-12-14T00:36:27.888Z,13.27
2022-12-14T00:38:55.573Z,13.97
2022-12-14T00:41:23.315Z,12.87
2022-12-14T00:43:52.420Z,13.93
2022-12-14T00:46:20.550Z,16.07
2022-12-14T00:48:48.352Z,13.97
2022-12-14T00:51:16.079Z,12.90
2022-12-14T00:53:45.083Z,13.80
2022-12-14T00:56:12.853Z,12.73
2022-12-14T00:58:40.875Z,13.50
2022-12-14T01:01:13.548Z,13.07
2022-12-14T01:03:41.659Z,13.53
2022-12-14T01:06:15.107Z,14.80
2022-12-14T01:08:42.817Z,13.43
2022-12-14T01:11:11.660Z,13.90
2022-12-14T01:13:40.272Z,13.67
2022-12-14T01:16:11.955Z,15.23
2022-12-14T01:18:42.140Z,11.67
2022-12-14T01:21:11.986Z,14.93
2022-12-14T01:23:39.746Z,13.53
2022-12-14T01:26:07.529Z,13.50
2022-12-14T01:28:36.047Z,14.30
2022-12-14T01:31:08.112Z,13.33
2022-12-14T01:33:37.311Z,12.27
2022-12-14T01:36:07.250Z,13.67
2022-12-14T01:38:35.086Z,13.83
2022-12-14T01:41:03.235Z,12.73
2022-12-14T01:43:49.615Z,14.03
2022-12-14T01:46:22.496Z,11.23
2022-12-14T01:48:55.848Z,14.40
2022-12-14T01:51:25.572Z,15.47
2022-12-14T01:53:54.236Z,13.93
2022-12-14T01:56:22.097Z,14.13
2022-12-14T01:58:50.599Z,13.60
2022-12-14T02:01:18.580Z,14.20
2022-12-14T02:03:50.150Z,14.77
2022-12-14T02:06:22.847Z,14.20
2022-12-14T02:08:53.639Z,13.57
2022-12-14T02:11:30.388Z,13.27
2022-12-14T02:13:58.145Z,16.53
2022-12-14T02:16:26.035Z,16.23
2022-12-14T02:18:53.775Z,15.10
2022-12-14T02:21:37.646Z,14.93
2022-12-14T02:24:43.425Z,13.63
2022-12-14T02:27:34.690Z,14.77
2022-12-14T02:30:08.746Z,14.17
2022-12-14T02:32:56.824Z,14.43
2022-12-14T02:35:33.379Z,15.23
2022-12-14T02:38:14.921Z,15.00
2022-12-14T02:40:53.054Z,13.80
2022-12-14T02:43:29.787Z,15.20
2022-12-14T02:46:09.907Z,14.90
2022-12-14T02:48:42.923Z,15.63
2022-12-14T02:51:25.195Z,14.97
2022-12-14T02:53:57.920Z,16.40
2022-12-14T02:56:32.816Z,14.60
2022-12-14T02:59:02.627Z,16.03
2022-12-14T03:01:32.689Z,14.97
2022-12-14T03:04:03.432Z,16.67
2022-12-14T03:06:31.635Z,15.10
2022-12-14T03:09:02.917Z,14.97
2022-12-14T03:11:41.140Z,16.20
2022-12-14T03:14:14.616Z,15.90
2022-12-14T03:16:47.389Z,15.47
2022-12-14T03:19:21.709Z,15.20
2022-12-14T03:21:54.351Z,15.47
2022-12-14T03:24:26.670Z,16.43
2022-12-14T03:26:59.666Z,15.40
2022-12-14T03:29:29.911Z,16.20
2022-12-14T03:32:03.520Z,15.53
2022-12-14T03:34:36.594Z,16.30
2022-12-14T03:37:10.744Z,16.17
2022-12-14T03:39:41.231Z,17.27
2022-12-14T03:42:16.028Z,14.13
2022-12-14T03:44:50.074Z,16.53
2022-12-14T03:47:36.236Z,16.57
2022-12-14T03:50:11.380Z,16.83
2022-12-14T03:52:43.745Z,16.20
2022-12-14T03:55:24.252Z,15.77
2022-12-14T03:58:05.847Z,15.63
2022-12-14T04:00:41.586Z,16.17
2022-12-14T04:03:19.799Z,16.40
2022-12-14T04:05:53.861Z,16.10
2022-12-14T04:08:29.926Z,12.63
2022-12-14T04:11:17.225Z,16.63
2022-12-14T04:14:13.183Z,15.70
2022-12-14T04:17:01.311Z,15.03
2022-12-14T04:19:39.690Z,13.50
2022-12-14T04:22:12.137Z,16.23
2022-12-14T04:25:01.451Z,14.87
2022-12-14T04:27:37.397Z,17.00
2022-12-14T04:30:05.975Z,16.07
2022-12-14T04:32:38.430Z,16.30
2022-12-14T04:35:13.073Z,16.57
2022-12-14T04:37:43.937Z,16.53
2022-12-14T04:40:14.172Z,15.60
2022-12-14T04:42:47.200Z,13.10
2022-12-14T04:45:20.232Z,18.17
2022-12-14T04:47:57.998Z,17.60
2022-12-14T04:50:31.898Z,14.47
2022-12-14T04:53:04.875Z,17.60
2022-12-14T04:55:37.754Z,16.23
2022-12-14T04:58:11.591Z,15.63
2022-12-14T05:00:50.187Z,16.07
2022-12-14T05:03:25.181Z,16.40
2022-12-14T05:06:07.017Z,16.90
2022-12-14T05:08:55.821Z,16.57
2022-12-14T05:14:20.467Z,17.33
2022-12-14T05:16:49.660Z,17.47
2022-12-14T05:19:17.808Z,16.70
2022-12-14T05:21:49.492Z,18.83
2022-12-14T05:24:17.970Z,23.57
2022-12-14T05:26:45.889Z,17.97
2022-12-14T05:29:14.986Z,17.23
2022-12-14T05:31:42.743Z,15.53
2022-12-14T05:34:17.001Z,17.60
2022-12-14T05:36:46.188Z,18.00
2022-12-14T05:39:14.402Z,18.00
2022-12-14T05:41:42.347Z,18.17
2022-12-14T05:44:10.407Z,17.30
2022-12-14T05:46:38.435Z,17.73
2022-12-14T05:49:06.181Z,16.43
2022-12-14T05:51:34.212Z,15.87
2022-12-14T05:54:03.340Z,18.57
2022-12-14T05:56:31.032Z,17.27
2022-12-14T05:58:58.840Z,16.40
2022-12-14T06:01:26.646Z,15.10
2022-12-14T06:03:54.565Z,15.93
2022-12-14T06:06:22.475Z,17.93
2022-12-14T06:08:50.556Z,16.33
2022-12-14T06:11:21.335Z,17.00
2022-12-14T06:13:49.454Z,17.27
2022-12-14T06:16:19.020Z,16.30
2022-12-14T06:18:48.374Z,17.70
2022-12-14T06:21:18.342Z,17.27
2022-12-14T06:23:46.156Z,16.83
2022-12-14T06:26:15.065Z,17.77
2022-12-14T06:28:44.169Z,17.53
2022-12-14T06:31:16.771Z,16.37
2022-12-14T06:33:45.223Z,16.27
2022-12-14T06:36:18.858Z,16.87
2022-12-14T06:38:47.075Z,14.70
2022-12-14T06:41:15.017Z,15.43
2022-12-14T06:43:44.537Z,15.00
2022-12-14T06:46:18.901Z,15.87
2022-12-14T06:48:50.797Z,15.43
2022-12-14T06:51:18.562Z,16.07
2022-12-14T06:53:46.459Z,15.27
2022-12-14T06:56:16.163Z,17.23
2022-12-14T06:58:46.086Z,16.37
2022-12-14T07:01:16.091Z,16.00
2022-12-14T07:03:44.791Z,14.63
2022-12-14T07:06:12.515Z,13.67
2022-12-14T07:08:40.587Z,14.30
2022-12-14T07:11:11.490Z,17.47
2022-12-14T07:13:40.218Z,16.83
2022-12-14T07:16:13.845Z,15.83
2022-12-14T07:18:41.608Z,15.90
2022-12-14T07:21:11.092Z,17.20
2022-12-14T07:23:40.151Z,16.80
2022-12-14T07:26:09.920Z,15.20
2022-12-14T07:28:38.773Z,15.67
2022-12-14T07:31:08.601Z,16.53
2022-12-14T07:33:38.288Z,15.47
2022-12-14T07:36:07.783Z,15.43
2022-12-14T07:38:36.776Z,17.03
2022-12-14T07:41:06.606Z,14.87
2022-12-14T07:43:35.124Z,16.93
2022-12-14T07:46:05.667Z,14.50
2022-12-14T07:48:34.058Z,15.53
2022-12-14T07:51:08.522Z,14.93
2022-12-14T07:53:37.583Z,15.07
2022-12-14T07:56:07.525Z,15.20
2022-12-14T07:58:36.702Z,16.90
2022-12-14T08:01:12.703Z,14.80
2022-12-14T08:03:41.871Z,14.13
2022-12-14T08:06:12.478Z,15.67
2022-12-14T08:08:40.738Z,14.30
2022-12-14T08:11:09.226Z,15.27
2022-12-14T08:13:38.823Z,15.50
2022-12-14T08:16:09.538Z,14.70
2022-12-14T08:18:37.598Z,15.83
2022-12-14T08:21:07.011Z,15.53
2022-12-14T08:23:36.512Z,13.97
2022-12-14T08:26:05.723Z,13.33
2022-12-14T08:28:35.528Z,12.73
2022-12-14T08:31:07.064Z,11.63
2022-12-14T08:33:35.956Z,11.30
2022-12-14T08:36:08.167Z,11.27
2022-12-14T08:38:37.773Z,8.47
2022-12-14T08:41:06.321Z,8.30
2022-12-14T08:43:34.098Z,9.50
2022-12-14T08:46:02.117Z,10.10
2022-12-14T08:48:29.844Z,9.53
2022-12-14T08:51:03.399Z,10.60
2022-12-14T08:53:31.900Z,9.67
2022-12-14T08:56:05.869Z,9.13
2022-12-14T08:58:34.709Z,9.37
2022-12-14T09:01:04.324Z,9.43
2022-12-14T09:03:32.969Z,9.27
2022-12-14T09:06:04.089Z,8.40
2022-12-14T09:08:32.479Z,9.90
2022-12-14T09:11:02.155Z,9.13
2022-12-14T09:13:30.780Z,9.73
2022-12-14T09:16:00.220Z,8.87
2022-12-14T09:18:29.215Z,9.87
2022-12-14T09:20:58.475Z,8.83
2022-12-14T09:23:28.915Z,8.63
2022-12-14T09:26:03.027Z,7.50
2022-12-14T09:28:32.039Z,8.03
2022-12-14T09:31:02.140Z,9.40
2022-12-14T09:33:31.556Z,8.03
2022-12-14T09:36:03.687Z,7.67
2022-12-14T09:38:33.548Z,7.73
2022-12-14T09:41:07.703Z,7.10
2022-12-14T09:43:41.384Z,6.00
2022-12-14T09:46:28.493Z,5.43
2022-12-14T09:48:58.370Z,5.23
2022-12-14T09:51:33.017Z,8.03
2022-12-14T09:54:06.169Z,7.73
2022-12-14T09:56:35.986Z,6.43
2022-12-14T09:59:04.566Z,5.97
2022-12-14T10:02:29.114Z,6.90
2022-12-14T10:04:52.911Z,6.70
2022-12-14T10:07:26.633Z,6.30
2022-12-14T10:10:02.773Z,7.47
2022-12-14T10:12:47.967Z,6.80
2022-12-14T10:15:25.896Z,6.87
2022-12-14T10:18:57.844Z,6.93
2022-12-14T10:21:13.797Z,7.40
2022-12-14T10:23:48.622Z,7.00
2022-12-14T10:26:20.461Z,6.90
2022-12-14T10:29:00.937Z,6.87
2022-12-14T10:31:36.027Z,5.90
2022-12-14T10:34:18.962Z,7.00
2022-12-14T10:36:54.156Z,6.77
2022-12-14T10:39:41.074Z,7.00
2022-12-14T10:42:17.831Z,6.00
2022-12-14T10:45:23.296Z,6.33
2022-12-14T10:47:47.738Z,6.23
2022-12-14T10:50:25.183Z,6.80
2022-12-14T10:52:54.877Z,6.87
2022-12-14T10:55:29.216Z,6.63
2022-12-14T10:57:56.973Z,6.70
2022-12-14T11:00:26.153Z,5.70
2022-12-14T11:02:56.664Z,6.63
2022-12-14T11:05:36.721Z,6.47
2022-12-14T11:08:06.689Z,6.40
2022-12-14T11:10:36.081Z,6.00
2022-12-14T11:13:08.051Z,5.70
2022-12-14T11:15:39.388Z,5.97
2022-12-14T11:18:28.636Z,6.47
2022-12-14T11:20:58.427Z,5.43
2022-12-14T11:23:27.933Z,6.70
2022-12-14T11:25:58.886Z,5.57
2022-12-14T11:28:36.650Z,6.30
2022-12-14T11:31:09.843Z,6.57
2022-12-14T11:33:40.675Z,6.20
2022-12-14T11:36:09.935Z,5.10
2022-12-14T11:38:37.804Z,6.60
2022-12-14T11:41:10.944Z,6.03
2022-12-14T11:43:40.057Z,6.10
2022-12-14T11:46:09.247Z,7.20
2022-12-14T11:48:39.378Z,7.77
2022-12-14T11:51:12.137Z,6.57
2022-12-14T11:53:40.397Z,6.70
2022-12-14T11:56:13.774Z,6.57
2022-12-14T11:58:50.093Z,7.10
2022-12-14T12:01:24.436Z,6.47
2022-12-14T12:03:56.913Z,6.33
2022-12-14T12:06:27.529Z,6.23
2022-12-14T12:08:57.736Z,6.07
2022-12-14T12:11:28.599Z,6.70
2022-12-14T12:14:01.587Z,7.77
2022-12-14T12:16:32.874Z,6.50
2022-12-14T12:19:11.803Z,7.23
2022-12-14T12:21:42.692Z,7.47
2022-12-14T12:24:18.343Z,7.20
2022-12-14T12:26:51.104Z,6.97
2022-12-14T12:29:25.234Z,6.53
2022-12-14T12:31:59.122Z,7.60
2022-12-14T12:34:31.406Z,7.40
2022-12-14T12:37:25.956Z,6.47
2022-12-14T12:39:58.108Z,7.27
2022-12-14T12:42:35.668Z,7.60
2022-12-14T12:45:09.744Z,7.03
2022-12-14T12:47:47.526Z,7.47
2022-12-14T12:50:18.257Z,7.00
2022-12-14T12:53:02.482Z,7.10
2022-12-14T12:55:33.456Z,6.37
2022-12-14T12:58:04.937Z,7.30
2022-12-14T13:00:33.769Z,7.43
2022-12-14T13:03:10.093Z,7.47
2022-12-14T13:05:47.447Z,7.20
2022-12-14T13:08:23.701Z,7.17
2022-12-14T13:11:25.736Z,7.30
2022-12-14T13:13:46.641Z,6.73
2022-12-14T13:16:23.020Z,6.77
2022-12-14T13:19:18.997Z,6.93
2022-12-14T13:21:51.834Z,7.07
2022-12-14T13:24:21.569Z,6.80
2022-12-14T13:27:17.519Z,7.93
2022-12-14T13:30:04.447Z,6.83
2022-12-14T13:32:46.290Z,7.67
2022-12-14T13:35:34.742Z,7.43
2022-12-14T13:38:33.722Z,6.53
2022-12-14T13:41:26.803Z,7.23
2022-12-14T13:44:17.156Z,7.67
2022-12-14T13:46:45.063Z,7.47
2022-12-14T13:49:21.468Z,7.47
2022-12-14T13:51:52.389Z,7.53
2022-12-14T13:54:27.617Z,7.03
2022-12-14T13:57:04.540Z,6.17
2022-12-14T13:59:36.267Z,6.97
2022-12-14T14:02:06.133Z,6.57
2022-12-14T14:04:35.699Z,7.87
2022-12-14T14:07:49.881Z,7.37
2022-12-14T14:10:31.491Z,7.53
2022-12-14T14:12:59.621Z,7.13
2022-12-14T14:15:52.006Z,6.83
2022-12-14T14:18:29.538Z,7.80
2022-12-14T14:21:30.024Z,8.43
2022-12-14T14:24:01.465Z,7.40
2022-12-14T14:26:31.275Z,7.73
2022-12-14T14:29:15.556Z,6.83
2022-12-14T14:31:52.598Z,6.80
2022-12-14T14:34:25.536Z,8.37
2022-12-14T14:36:53.476Z,8.03
2022-12-14T14:39:56.077Z,8.00
2022-12-14T14:42:26.620Z,7.83
2022-12-14T14:44:57.894Z,8.37
2022-12-14T14:47:31.069Z,8.70
2022-12-14T14:50:01.445Z,8.63
2022-12-14T14:53:02.842Z,8.60
2022-12-14T14:56:12.832Z,8.90
2022-12-14T14:58:41.890Z,8.83
2022-12-14T15:01:19.451Z,9.80
2022-12-14T15:03:53.143Z,8.90
2022-12-14T15:06:24.801Z,8.90
2022-12-14T15:08:59.699Z,8.73
2022-12-14T15:11:36.278Z,9.93
2022-12-14T15:14:14.940Z,8.97
2022-12-14T15:16:45.039Z,9.00
2022-12-14T15:19:25.530Z,9.10
2022-12-14T15:21:56.525Z,9.90
2022-12-14T15:24:26.107Z,9.00
2022-12-14T15:26:55.286Z,9.47
2022-12-14T15:29:28.014Z,9.13
2022-12-14T15:32:00.501Z,10.83
2022-12-14T15:34:29.062Z,9.33
2022-12-14T15:36:57.597Z,9.60
2022-12-14T15:39:39.802Z,8.83
2022-12-14T15:42:15.003Z,10.03
2022-12-14T15:44:50.450Z,9.20
2022-12-14T15:47:26.622Z,9.97
2022-12-14T15:50:00.659Z,10.53
2022-12-14T15:52:31.778Z,10.43
2022-12-14T15:55:00.754Z,9.90
2022-12-14T15:57:29.893Z,10.77
2022-12-14T15:59:58.993Z,9.17
2022-12-14T16:02:31.487Z,9.97
2022-12-14T16:05:03.894Z,10.00
2022-12-14T16:07:37.522Z,10.37
2022-12-14T16:10:15.854Z,9.47
2022-12-14T16:12:47.830Z,10.40
2022-12-14T16:15:19.996Z,10.20
2022-12-14T16:17:47.953Z,10.50
2022-12-14T16:20:22.532Z,10.27
2022-12-14T16:23:22.779Z,9.43
2022-12-14T16:25:52.256Z,10.90
2022-12-14T16:28:27.044Z,10.00
2022-12-14T16:30:59.346Z,11.87
2022-12-14T16:33:29.479Z,12.20
2022-12-14T16:36:03.761Z,8.67
2022-12-14T16:38:32.336Z,11.37
2022-12-14T16:41:02.816Z,11.17
2022-12-14T16:43:35.334Z,10.77
2022-12-14T16:46:20.880Z,11.10
2022-12-14T16:49:23.176Z,11.63
2022-12-14T16:52:07.254Z,9.43
2022-12-14T16:54:35.883Z,10.57
2022-12-14T16:57:06.690Z,9.13
2022-12-14T16:59:42.124Z,10.53
2022-12-14T17:02:29.660Z,10.17
2022-12-14T17:04:59.502Z,11.37
2022-12-14T17:07:29.671Z,11.97
2022-12-14T17:09:57.426Z,10.13
2022-12-14T17:12:27.135Z,10.50
2022-12-14T17:14:56.286Z,9.73
2022-12-14T17:17:33.861Z,11.50
2022-12-14T17:20:02.648Z,11.53
2022-12-14T17:22:34.088Z,9.93
2022-12-14T17:25:02.539Z,9.80
2022-12-14T17:27:30.510Z,12.23
2022-12-14T17:29:59.600Z,10.77
2022-12-14T17:32:30.172Z,10.37
2022-12-14T17:34:58.157Z,10.90
2022-12-14T17:37:32.449Z,10.50
2022-12-14T17:40:04.017Z,10.93
2022-12-14T17:42:31.844Z,12.67
2022-12-14T17:45:01.673Z,11.47
2022-12-14T17:47:29.493Z,12.37
2022-12-14T17:49:57.273Z,12.73
2022-12-14T17:52:28.185Z,13.10
2022-12-14T17:54:56.138Z,12.53
2022-12-14T17:57:26.207Z,13.67
2022-12-14T18:00:14.246Z,11.23
2022-12-14T18:02:45.438Z,13.50
2022-12-14T18:05:19.595Z,13.57
2022-12-14T18:07:49.884Z,13.40
2022-12-14T18:10:19.407Z,13.00
2022-12-14T18:12:57.424Z,12.33
2022-12-14T18:15:27.560Z,13.70
2022-12-14T18:17:56.846Z,13.57
2022-12-14T18:20:25.329Z,13.70
2022-12-14T18:22:53.355Z,13.97
2022-12-14T18:25:31.655Z,15.13
2022-12-14T18:28:00.608Z,14.87
2022-12-14T18:30:34.885Z,15.00
2022-12-14T18:33:07.976Z,13.13
2022-12-14T18:35:37.103Z,15.43
2022-12-14T18:38:04.830Z,13.40
2022-12-14T18:40:32.600Z,13.50
2022-12-14T18:43:00.471Z,13.10
2022-12-14T18:45:30.248Z,13.97
2022-12-14T18:47:59.166Z,14.93
2022-12-14T18:50:29.110Z,15.23
2022-12-14T18:52:57.786Z,15.07
2022-12-14T18:55:27.500Z,15.33
2022-12-14T18:57:57.150Z,15.57
2022-12-14T19:00:26.689Z,14.40
2022-12-14T19:02:58.167Z,14.87
2022-12-14T19:05:28.010Z,15.47
2022-12-14T19:07:57.643Z,13.63
2022-12-14T19:10:27.491Z,14.47
2022-12-14T19:12:55.593Z,14.93
2022-12-14T19:15:25.249Z,16.80
2022-12-14T19:17:53.928Z,20.40
2022-12-14T19:20:22.702Z,14.77
2022-12-14T19:22:52.020Z,16.20
2022-12-14T19:25:21.027Z,16.27
2022-12-14T19:30:37.343Z,15.90
2022-12-14T19:33:05.128Z,15.67
2022-12-14T19:35:32.953Z,16.03
2022-12-14T19:38:02.068Z,14.77
2022-12-14T19:40:30.816Z,15.23
2022-12-14T19:42:59.362Z,14.57
2022-12-14T19:45:27.129Z,18.47
2022-12-14T19:47:54.879Z,16.00
2022-12-14T19:50:22.638Z,16.10
2022-12-14T19:52:52.457Z,17.30
2022-12-14T19:55:21.675Z,17.37
2022-12-14T19:57:49.441Z,17.37
2022-12-14T20:00:17.470Z,17.67
2022-12-14T20:02:45.342Z,16.60
2022-12-14T20:05:17.816Z,16.90
2022-12-14T20:07:45.623Z,16.87
2022-12-14T20:10:13.346Z,15.93
2022-12-14T20:12:43.135Z,18.67
2022-12-14T20:15:11.908Z,18.47
2022-12-14T20:17:39.634Z,16.50
2022-12-14T20:20:08.525Z,15.10
2022-12-14T20:22:36.319Z,16.63
2022-12-14T20:25:04.067Z,15.27
2022-12-14T20:27:34.820Z,19.33
2022-12-14T20:30:09.895Z,17.37
2022-12-14T20:32:37.706Z,17.70
2022-12-14T20:35:06.368Z,16.50
2022-12-14T20:37:34.128Z,18.00
2022-12-14T20:40:01.851Z,17.33
2022-12-14T20:42:29.599Z,18.20
2022-12-14T20:44:58.181Z,19.47
2022-12-14T20:47:29.464Z,18.67
2022-12-14T20:49:57.214Z,19.33
2022-12-14T20:52:25.017Z,18.73
2022-12-14T20:54:53.558Z,17.60
2022-12-14T20:57:21.415Z,19.60
2022-12-14T20:59:49.629Z,20.07
2022-12-14T21:02:18.843Z,18.90
2022-12-14T21:04:48.140Z,17.87
2022-12-14T21:07:16.000Z,17.87
2022-12-14T21:09:44.089Z,20.67
2022-12-14T21:12:23.740Z,19.63
2022-12-14T21:14:53.126Z,19.07
2022-12-14T21:17:22.474Z,18.97
2022-12-14T21:19:51.735Z,18.77
2022-12-14T21:22:22.082Z,19.40
2022-12-14T21:25:03.112Z,18.27
2022-12-14T21:27:34.558Z,19.17
2022-12-14T21:30:02.301Z,19.50
2022-12-14T21:32:30.056Z,19.33
2022-12-14T21:34:59.172Z,19.13
2022-12-14T21:37:27.091Z,17.93
2022-12-14T21:39:55.856Z,17.97
2022-12-14T21:42:23.511Z,18.97
2022-12-14T21:44:52.814Z,19.50
2022-12-14T21:47:22.571Z,18.23
2022-12-14T21:49:50.367Z,19.10
2022-12-14T21:52:21.473Z,18.53
2022-12-14T21:54:49.689Z,18.13
2022-12-14T21:57:36.756Z,19.57
2022-12-14T22:00:05.816Z,19.83
2022-12-14T22:02:33.665Z,20.53
2022-12-14T22:05:01.641Z,20.63
2022-12-14T22:07:33.381Z,20.10
2022-12-14T22:10:01.226Z,19.03
2022-12-14T22:12:29.173Z,19.67
2022-12-14T22:14:56.917Z,20.57
2022-12-14T22:17:24.655Z,20.73
2022-12-14T22:19:54.311Z,19.77
2022-12-14T22:22:22.221Z,19.13
2022-12-14T22:24:52.013Z,19.50
2022-12-14T22:27:20.451Z,19.60
2022-12-14T22:29:48.190Z,20.03
2022-12-14T22:32:17.372Z,20.67
2022-12-14T22:34:45.178Z,20.50
2022-12-14T22:37:14.690Z,21.07
2022-12-14T22:39:42.699Z,21.13
2022-12-14T22:42:11.817Z,21.50
2022-12-14T22:44:40.259Z,19.53
2022-12-14T22:47:07.996Z,20.50
2022-12-14T22:49:35.719Z,19.60
2022-12-14T22:52:03.443Z,20.00
2022-12-14T22:54:31.606Z,20.70
2022-12-14T22:57:03.806Z,20.13
2022-12-14T22:59:36.727Z,20.80
2022-12-14T23:02:05.221Z,19.43
2022-12-14T23:04:33.127Z,19.43
2022-12-14T23:07:00.985Z,18.50
2022-12-14T23:09:46.155Z,18.93
2022-12-14T23:12:31.391Z,18.33
2022-12-14T23:15:18.130Z,19.73
2022-12-14T23:18:03.395Z,19.53
2022-12-14T23:20:48.829Z,18.67
2022-12-14T23:23:34.550Z,18.83
2022-12-14T23:26:20.714Z,20.20
2022-12-14T23:29:06.085Z,19.83
2022-12-14T23:31:52.571Z,19.37
2022-12-14T23:34:37.861Z,19.37
2022-12-14T23:37:23.311Z,21.30
2022-12-14T23:40:08.654Z,21.53
2022-12-14T23:42:53.929Z,22.57
2022-12-14T23:45:39.311Z,18.33
2022-12-14T23:48:26.405Z,20.33
2022-12-14T23:51:11.703Z,21.73
2022-12-14T23:53:56.941Z,21.20
2022-12-14T23:56:42.248Z,19.97
2022-12-14T23:59:31.846Z,20.20
